Time;durP1;ratioP1;P1;durP2;ratioP2;P2;SDS_P1;SDS_P2;PMS_P1;PMS_P2;Temp;Humidity;BMP_temperature;BMP_pressure;BME280_temperature;BME280_humidity;BME280_pressure;Samples;Min_cycle;Max_cycle;Signal;HPM_P1;HPM_P2
2023/11/13 00:01:58;;;;;;;;;;;;;;;15.12;45.17;100785.53;5082974;28;1090;-46
2023/11/13 00:04:24;;;;;;;;;;;;;;;15.23;45.31;100795.47;5081191;28;1852;-44
2023/11/13 00:06:49;;;;;;;;;;;;;;;15.77;46.18;100799.03;5096028;28;1093;-46
2023/11/13 00:09:14;;;;;;;;;;;;;;;15.35;46.05;100801.56;5099296;28;1078;-45
2023/11/13 00:11:40;;;;;;;;;;;;;;;15.18;45.75;100800.91;5095628;28;1066;-45
2023/11/13 00:14:06;;;;;;;;;;;;;;;15.20;45.08;100809.69;5078812;28;1898;-45
2023/11/13 00:16:31;;;;;;;;;;;;;;;15.12;44.87;100801.97;5081626;28;980;-43
2023/11/13 00:18:57;;;;;;;;;;;;;;;15.11;44.36;100790.19;5089164;28;1153;-48
2023/11/13 00:21:22;;;;;;;;;;;;;;;15.02;44.19;100798.06;5078761;28;1169;-42
2023/11/13 00:23:48;;;;;;;;;;;;;;;14.86;44.35;100805.34;5088785;28;1165;-45
2023/11/13 00:26:13;;;;;;;;;;;;;;;15.68;45.67;100794.09;5095554;28;1094;-47
2023/11/13 00:28:48;;;;;;;;;;;;;;;15.54;46.30;100801.13;5081749;28;833;-46
2023/11/13 00:31:14;;;;;;;;;;;;;;;15.29;45.81;100797.16;5080620;28;1512;-45
2023/11/13 00:33:39;;;;;;;;;;;;;;;15.13;45.48;100795.41;5087846;28;1905;-47
2023/11/13 00:36:06;;;;;;;;;;;;;;;15.10;45.16;100795.94;5092059;28;1022;-46
2023/11/13 00:38:32;;;;;;;;;;;;;;;15.06;44.80;100803.84;5089367;28;1008;-46
2023/11/13 00:40:58;;;;;;;;;;;;;;;14.97;44.52;100792.56;5091794;28;928;-44
2023/11/13 00:43:23;;;;;;;;;;;;;;;14.89;44.21;100798.50;5060048;28;1506;-45
2023/11/13 00:45:49;;;;;;;;;;;;;;;14.84;44.29;100809.41;5064783;28;1161;-44
2023/11/13 00:48:14;;;;;;;;;;;;;;;14.86;43.82;100790.84;5097699;28;1058;-47
2023/11/13 00:50:40;;;;;;;;;;;;;;;15.51;44.61;100785.22;5085157;28;1034;-49
2023/11/13 00:53:05;;;;;;;;;;;;;;;15.45;46.01;100780.81;5098135;28;1178;-49
2023/11/13 00:55:31;;;;;;;;;;;;;;;15.15;45.64;100785.00;5093922;28;1933;-48
2023/11/13 00:57:56;;;;;;;;;;;;;;;15.01;45.15;100779.16;5060205;28;1012;-44
2023/11/13 01:00:22;;;;;;;;;;;;;;;14.99;44.88;100784.88;5091531;28;1059;-46
2023/11/13 01:02:47;;;;;;;;;;;;;;;14.92;44.42;100787.03;5069848;28;2295;-46
2023/11/13 01:05:13;;;;;;;;;;;;;;;14.90;44.34;100800.19;5091166;28;1154;-44
2023/11/13 01:07:39;;;;;;;;;;;;;;;14.79;44.26;100803.88;5078069;28;986;-47
2023/11/13 01:10:05;;;;;;;;;;;;;;;14.82;44.10;100787.78;5081644;28;1104;-48
2023/11/13 01:12:31;;;;;;;;;;;;;;;14.77;43.80;100792.38;5069263;28;1095;-47
2023/11/13 01:14:57;;;;;;;;;;;;;;;15.19;44.77;100786.13;5073695;28;1918;-45
2023/11/13 01:17:23;;;;;;;;;;;;;;;15.44;45.75;100787.38;5087210;28;1025;-46
2023/11/13 01:19:48;;;;;;;;;;;;;;;15.08;45.83;100790.69;5094932;28;1129;-47
2023/11/13 01:22:14;;;;;;;;;;;;;;;15.05;44.96;100800.28;5069238;28;1944;-45
2023/11/13 01:24:40;;;;;;;;;;;;;;;14.89;44.87;100776.59;5090957;28;1104;-49
2023/11/13 01:27:06;;;;;;;;;;;;;;;14.86;44.51;100790.84;5086638;28;1114;-47
2023/11/13 01:29:33;;;;;;;;;;;;;;;14.86;44.36;100810.00;5090995;28;1106;-44
2023/11/13 01:31:58;;;;;;;;;;;;;;;14.79;44.36;100815.69;5087928;28;1094;-45
2023/11/13 01:34:24;;;;;;;;;;;;;;;15.98;45.44;100830.16;5092053;28;1913;-44
2023/11/13 01:36:50;;;;;;;;;;;;;;;15.52;46.38;100839.75;5087862;28;1042;-44
2023/11/13 01:39:15;;;;;;;;;;;;;;;15.21;46.25;100850.50;5065606;28;1110;-47
2023/11/13 01:41:42;;;;;;;;;;;;;;;15.14;45.63;100838.16;5097490;28;1045;-44
2023/11/13 01:44:07;;;;;;;;;;;;;;;15.05;45.10;100844.09;5079687;28;1079;-44
2023/11/13 01:46:33;;;;;;;;;;;;;;;14.97;44.88;100844.59;5091706;28;960;-45
2023/11/13 01:48:59;;;;;;;;;;;;;;;14.94;44.40;100844.28;5079812;28;1062;-47
2023/11/13 01:51:24;;;;;;;;;;;;;;;14.88;44.44;100857.09;5079858;28;1032;-48
2023/11/13 01:53:50;;;;;;;;;;;;;;;14.82;44.08;100847.19;5093202;28;1914;-45
2023/11/13 01:56:15;;;;;;;;;;;;;;;16.01;45.32;100851.56;5077202;28;982;-46
2023/11/13 01:58:41;;;;;;;;;;;;;;;15.37;46.30;100845.16;5062923;28;1657;-45
2023/11/13 02:01:07;;;;;;;;;;;;;;;15.13;45.88;100839.22;5067563;28;1130;-46
2023/11/13 02:03:33;;;;;;;;;;;;;;;15.13;45.20;100839.22;5087857;28;1919;-47
2023/11/13 02:05:59;;;;;;;;;;;;;;;15.10;44.65;100851.53;5086719;28;1094;-41
2023/11/13 02:08:24;;;;;;;;;;;;;;;14.97;44.68;100835.53;5075462;28;1229;-43
2023/11/13 02:10:50;;;;;;;;;;;;;;;14.94;44.14;100834.16;5068616;28;1216;-45
2023/11/13 02:13:15;;;;;;;;;;;;;;;14.86;44.17;100837.38;5062504;28;1285;-46
2023/11/13 02:15:41;;;;;;;;;;;;;;;15.77;45.29;100845.66;5086152;28;1972;-44
2023/11/13 02:18:07;;;;;;;;;;;;;;;15.32;45.81;100862.38;5072158;28;1515;-45
2023/11/13 02:20:32;;;;;;;;;;;;;;;15.16;45.54;100852.41;5087320;28;1070;-44
2023/11/13 02:22:59;;;;;;;;;;;;;;;15.01;45.26;100842.97;5078643;28;1298;-44
2023/11/13 02:25:25;;;;;;;;;;;;;;;14.91;44.78;100842.88;5078685;28;1219;-44
2023/11/13 02:27:52;;;;;;;;;;;;;;;14.87;44.32;100839.00;5092294;28;1117;-46
2023/11/13 02:30:18;;;;;;;;;;;;;;;14.80;44.53;100832.91;5058789;28;1103;-48
2023/11/13 02:32:43;;;;;;;;;;;;;;;14.84;44.34;100836.78;5076502;28;2546;-47
2023/11/13 02:35:09;;;;;;;;;;;;;;;15.74;45.34;100836.88;5069590;28;1910;-45
2023/11/13 02:37:34;;;;;;;;;;;;;;;15.20;46.09;100837.09;5082726;28;1137;-46
2023/11/13 02:40:00;;;;;;;;;;;;;;;15.05;45.50;100829.56;5090367;28;1038;-47
2023/11/13 02:42:26;;;;;;;;;;;;;;;15.00;45.34;100832.28;5093020;28;1011;-48
2023/11/13 02:44:51;;;;;;;;;;;;;;;15.60;45.53;100829.38;5078282;28;1126;-43
2023/11/13 02:47:18;;;;;;;;;;;;;;;15.46;46.16;100834.50;5096202;28;1115;-48
2023/11/13 02:49:43;;;;;;;;;;;;;;;15.22;45.77;100823.94;5085962;28;1105;-46
2023/11/13 02:52:09;;;;;;;;;;;;;;;15.15;45.22;100828.81;5072077;28;1239;-46
2023/11/13 02:54:35;;;;;;;;;;;;;;;15.00;45.28;100818.59;5095938;28;1975;-45
2023/11/13 02:57:00;;;;;;;;;;;;;;;14.91;44.84;100823.69;5079826;28;1031;-44
2023/11/13 02:59:26;;;;;;;;;;;;;;;14.83;44.83;100814.06;5085756;28;1063;-42
2023/11/13 03:01:51;;;;;;;;;;;;;;;15.51;45.35;100799.72;5075232;28;1023;-46
2023/11/13 03:04:18;;;;;;;;;;;;;;;15.47;46.37;100809.56;5079652;28;2704;-43
2023/11/13 03:06:44;;;;;;;;;;;;;;;15.18;45.89;100811.84;5091925;28;1030;-47
2023/11/13 03:09:09;;;;;;;;;;;;;;;15.17;45.39;100810.22;5096061;28;1050;-43
2023/11/13 03:11:36;;;;;;;;;;;;;;;15.04;45.03;100793.16;5076911;28;1460;-44
2023/11/13 03:14:02;;;;;;;;;;;;;;;15.03;44.64;100793.41;5080189;28;1905;-45
2023/11/13 03:16:27;;;;;;;;;;;;;;;14.96;44.54;100792.81;5092071;28;1062;-44
2023/11/13 03:18:53;;;;;;;;;;;;;;;14.96;44.50;100788.16;5100224;28;1205;-43
2023/11/13 03:21:19;;;;;;;;;;;;;;;15.89;45.59;100794.19;5097657;28;1030;-47
2023/11/13 03:23:44;;;;;;;;;;;;;;;15.26;46.30;100802.34;5080012;28;1052;-44
2023/11/13 03:26:10;;;;;;;;;;;;;;;15.17;45.85;100799.28;5061917;28;1116;-45
2023/11/13 03:28:35;;;;;;;;;;;;;;;15.07;45.20;100791.81;5081996;28;1051;-44
2023/11/13 03:31:01;;;;;;;;;;;;;;;15.06;44.75;100793.69;5075126;28;1530;-47
2023/11/13 03:33:27;;;;;;;;;;;;;;;15.00;44.72;100793.94;5079715;28;2276;-44
2023/11/13 03:35:52;;;;;;;;;;;;;;;15.54;45.58;100799.22;5079520;28;1162;-45
2023/11/13 03:38:18;;;;;;;;;;;;;;;15.45;46.09;100802.75;5079784;28;1011;-48
2023/11/13 03:40:43;;;;;;;;;;;;;;;15.21;45.71;100803.94;5091300;28;1213;-41
2023/11/13 03:43:09;;;;;;;;;;;;;;;15.06;45.19;100810.13;5099517;28;994;-46
2023/11/13 03:45:37;;;;;;;;;;;;;;;14.91;45.06;100807.28;5078649;28;1106;-42
2023/11/13 03:48:03;;;;;;;;;;;;;;;14.93;44.71;100804.28;5061501;28;1796;-46
2023/11/13 03:50:28;;;;;;;;;;;;;;;14.85;44.60;100800.94;5081820;28;1046;-48
2023/11/13 03:52:54;;;;;;;;;;;;;;;15.27;45.10;100804.00;5091700;28;1274;-46
2023/11/13 03:55:20;;;;;;;;;;;;;;;15.68;46.05;100805.06;5074664;28;1906;-46
2023/11/13 03:57:46;;;;;;;;;;;;;;;15.33;46.03;100801.03;5087994;28;1058;-46
2023/11/13 04:00:11;;;;;;;;;;;;;;;15.22;45.30;100802.03;5096883;28;1085;-47
2023/11/13 04:02:40;;;;;;;;;;;;;;;15.08;45.08;100792.63;5089069;28;2345;-49
2023/11/13 04:05:06;;;;;;;;;;;;;;;15.00;44.99;100783.81;5096410;28;1220;-43
2023/11/13 04:07:32;;;;;;;;;;;;;;;14.79;44.77;100788.31;5089306;28;1142;-44
2023/11/13 04:09:58;;;;;;;;;;;;;;;14.90;44.33;100794.69;5067948;28;1195;-48
2023/11/13 04:12:23;;;;;;;;;;;;;;;15.74;45.30;100797.69;5089068;28;1479;-45
2023/11/13 04:14:49;;;;;;;;;;;;;;;15.25;46.07;100798.78;5092280;28;1905;-44
2023/11/13 04:17:14;;;;;;;;;;;;;;;15.15;45.45;100805.00;5087370;28;1054;-46
2023/11/13 04:19:40;;;;;;;;;;;;;;;15.06;45.08;100810.13;5095774;28;1171;-44
2023/11/13 04:22:06;;;;;;;;;;;;;;;15.05;44.85;100815.88;5078584;28;1007;-44
2023/11/13 04:24:32;;;;;;;;;;;;;;;14.87;44.72;100808.88;5081021;28;1091;-47
2023/11/13 04:26:58;;;;;;;;;;;;;;;14.86;44.19;100808.06;5098585;28;1053;-46
2023/11/13 04:29:24;;;;;;;;;;;;;;;14.85;44.01;100808.34;5090482;28;1030;-44
2023/11/13 04:31:49;;;;;;;;;;;;;;;15.79;45.32;100827.03;5098767;28;1090;-45
2023/11/13 04:34:15;;;;;;;;;;;;;;;15.48;46.24;100832.34;5085215;28;1978;-47
2023/11/13 04:36:40;;;;;;;;;;;;;;;15.16;45.90;100820.34;5089011;28;1105;-45
2023/11/13 04:39:09;;;;;;;;;;;;;;;15.06;45.73;100833.97;5080884;28;1085;-45
2023/11/13 04:41:36;;;;;;;;;;;;;;;15.01;44.94;100829.28;5097746;28;1046;-43
2023/11/13 04:44:01;;;;;;;;;;;;;;;14.99;44.56;100834.19;5095258;28;1118;-50
2023/11/13 04:46:27;;;;;;;;;;;;;;;14.88;44.37;100829.72;5087835;28;1109;-48
2023/11/13 04:48:52;;;;;;;;;;;;;;;14.91;44.57;100829.19;5098204;28;1057;-49
2023/11/13 04:51:18;;;;;;;;;;;;;;;14.78;44.59;100835.09;5098542;28;1066;-47
2023/11/13 04:53:43;;;;;;;;;;;;;;;15.28;45.35;100835.75;5091564;28;1985;-53
2023/11/13 04:56:09;;;;;;;;;;;;;;;15.60;46.24;100827.50;5097990;28;994;-47
2023/11/13 04:58:34;;;;;;;;;;;;;;;15.25;46.40;100839.88;5085239;28;1058;-51
2023/11/13 05:01:00;;;;;;;;;;;;;;;15.17;45.67;100851.31;5098373;28;1110;-50
2023/11/13 05:03:25;;;;;;;;;;;;;;;15.04;45.36;100850.66;5082213;28;2274;-49
2023/11/13 05:05:51;;;;;;;;;;;;;;;14.93;45.13;100840.72;5087102;28;843;-46
2023/11/13 05:08:16;;;;;;;;;;;;;;;15.83;46.14;100847.38;5082043;28;1116;-48
2023/11/13 05:10:42;;;;;;;;;;;;;;;15.60;47.07;100845.84;5084099;28;1117;-45
2023/11/13 05:13:08;;;;;;;;;;;;;;;15.35;46.59;100852.81;5084025;28;1057;-47
2023/11/13 05:15:33;;;;;;;;;;;;;;;15.21;45.75;100855.19;5091230;28;1981;-48
2023/11/13 05:17:59;;;;;;;;;;;;;;;15.12;45.44;100854.81;5088176;28;866;-49
2023/11/13 05:20:24;;;;;;;;;;;;;;;14.99;45.16;100850.59;5094789;28;1165;-49
2023/11/13 05:22:50;;;;;;;;;;;;;;;15.90;46.06;100858.91;5087405;28;1146;-49
2023/11/13 05:25:16;;;;;;;;;;;;;;;15.32;46.88;100859.66;5083950;28;1055;-49
2023/11/13 05:27:41;;;;;;;;;;;;;;;15.15;46.11;100862.53;5087850;28;1130;-50
2023/11/13 05:30:07;;;;;;;;;;;;;;;15.17;46.19;100862.28;5085962;28;1149;-48
2023/11/13 05:32:33;;;;;;;;;;;;;;;15.58;45.58;100868.03;5086839;28;2468;-43
2023/11/13 05:34:59;;;;;;;;;;;;;;;16.39;44.15;100875.00;5093676;28;1978;-47
2023/11/13 05:37:24;;;;;;;;;;;;;;;17.28;42.02;100874.06;5097849;28;990;-46
2023/11/13 05:39:50;;;;;;;;;;;;;;;17.35;42.27;100880.09;5088444;28;1129;-47
2023/11/13 05:42:17;;;;;;;;;;;;;;;16.37;44.29;100887.38;5081528;28;1004;-47
2023/11/13 05:44:43;;;;;;;;;;;;;;;16.78;43.82;100876.47;5097529;28;1078;-44
2023/11/13 05:47:09;;;;;;;;;;;;;;;17.27;42.72;100875.16;5083940;28;1144;-44
2023/11/13 05:49:34;;;;;;;;;;;;;;;16.43;44.73;100870.63;5084798;28;1116;-43
2023/11/13 05:52:00;;;;;;;;;;;;;;;17.38;42.76;100865.81;5089843;28;1056;-43
2023/11/13 05:54:26;;;;;;;;;;;;;;;17.04;43.57;100868.28;5079514;28;1914;-48
2023/11/13 05:56:51;;;;;;;;;;;;;;;16.49;45.16;100871.47;5090311;28;1202;-49
2023/11/13 05:59:17;;;;;;;;;;;;;;;16.20;45.84;100869.19;5076805;28;1039;-45
2023/11/13 06:01:43;;;;;;;;;;;;;;;17.13;44.02;100874.06;5090211;28;1182;-46
2023/11/13 06:04:09;;;;;;;;;;;;;;;17.45;43.14;100873.78;5076961;28;2719;-49
2023/11/13 06:06:35;;;;;;;;;;;;;;;16.63;45.26;100879.19;5088918;28;1214;-45
2023/11/13 06:09:00;;;;;;;;;;;;;;;17.21;43.88;100874.34;5096693;28;1034;-45
2023/11/13 06:11:26;;;;;;;;;;;;;;;17.44;43.42;100875.69;5077374;28;1058;-46
2023/11/13 06:13:51;;;;;;;;;;;;;;;16.76;45.06;100879.50;5076746;28;1879;-46
2023/11/13 06:16:17;;;;;;;;;;;;;;;16.87;45.10;100876.75;5082103;28;1055;-50
2023/11/13 06:18:50;;;;;;;;;;;;;;;17.73;42.88;100874.28;5082454;28;890;-49
2023/11/13 06:21:16;;;;;;;;;;;;;;;16.81;45.18;100866.88;5083457;28;1360;-44
2023/11/13 06:23:42;;;;;;;;;;;;;;;16.58;45.72;100883.59;5097854;28;1296;-50
2023/11/13 06:26:09;;;;;;;;;;;;;;;17.86;42.96;100881.91;5091496;28;1040;-47
2023/11/13 06:28:34;;;;;;;;;;;;;;;16.96;44.93;100891.66;5082371;28;1158;-45
2023/11/13 06:31:00;;;;;;;;;;;;;;;16.62;45.89;100902.25;5081189;28;1118;-47
2023/11/13 06:33:25;;;;;;;;;;;;;;;16.48;46.32;100902.78;5082621;28;2372;-51
2023/11/13 06:35:51;;;;;;;;;;;;;;;17.69;43.55;100901.50;5095372;28;1996;-48
2023/11/13 06:38:17;;;;;;;;;;;;;;;16.88;45.87;100897.63;5075680;28;1085;-49
2023/11/13 06:40:42;;;;;;;;;;;;;;;16.54;46.79;100914.59;5089493;28;1213;-50
2023/11/13 06:43:08;;;;;;;;;;;;;;;17.19;45.29;100922.44;5091037;28;856;-48
2023/11/13 06:45:34;;;;;;;;;;;;;;;18.67;42.01;100914.91;5085436;28;2055;-47
2023/11/13 06:47:59;;;;;;;;;;;;;;;15.44;50.87;100932.63;5083495;28;2252;-47
2023/11/13 06:50:25;;;;;;;;;;;;;;;16.31;47.98;100938.66;5095451;28;1971;-47
2023/11/13 06:52:50;;;;;;;;;;;;;;;16.60;46.22;100938.22;5081607;28;2269;-48
2023/11/13 06:55:16;;;;;;;;;;;;;;;16.48;45.91;100954.94;5090774;28;2165;-48
2023/11/13 06:57:42;;;;;;;;;;;;;;;16.19;45.58;100946.28;5084460;28;1958;-49
2023/11/13 07:00:11;;;;;;;;;;;;;;;16.20;45.10;100929.56;5091600;28;2337;-46
2023/11/13 07:02:39;;;;;;;;;;;;;;;16.12;44.94;100940.19;5079195;28;1118;-49
2023/11/13 07:05:07;;;;;;;;;;;;;;;16.01;44.79;100929.19;5082529;28;1059;-48
2023/11/13 07:07:32;;;;;;;;;;;;;;;16.02;44.61;100933.59;5092413;28;905;-47
2023/11/13 07:10:01;;;;;;;;;;;;;;;15.87;44.27;100930.75;5089243;28;1114;-48
2023/11/13 07:12:29;;;;;;;;;;;;;;;15.70;44.58;100942.69;5089382;28;1066;-50
2023/11/13 07:14:55;;;;;;;;;;;;;;;16.29;43.20;100951.81;5087676;28;1967;-51
2023/11/13 07:17:21;;;;;;;;;;;;;;;17.36;41.93;100942.22;5088075;28;1823;-50
2023/11/13 07:19:46;;;;;;;;;;;;;;;16.83;45.13;100939.66;5082847;28;1854;-48
2023/11/13 07:22:13;;;;;;;;;;;;;;;16.51;45.30;100943.41;5085064;28;2070;-46
2023/11/13 07:24:39;;;;;;;;;;;;;;;16.31;44.85;100938.66;5087446;28;2068;-49
2023/11/13 07:27:05;;;;;;;;;;;;;;;16.16;44.62;100936.69;5084838;28;2051;-49
2023/11/13 07:29:31;;;;;;;;;;;;;;;16.07;44.57;100939.09;5080684;28;2096;-45
2023/11/13 07:31:57;;;;;;;;;;;;;;;15.89;44.50;100928.56;5075296;28;1792;-50
2023/11/13 07:34:22;;;;;;;;;;;;;;;15.84;44.36;100928.53;5084566;28;1915;-49
2023/11/13 07:36:48;;;;;;;;;;;;;;;15.79;44.03;100926.56;5062112;28;1014;-46
2023/11/13 07:39:15;;;;;;;;;;;;;;;15.71;44.15;100921.56;5083639;28;1166;-49
2023/11/13 07:41:40;;;;;;;;;;;;;;;15.68;44.00;100922.94;5093640;28;1122;-48
2023/11/13 07:44:10;;;;;;;;;;;;;;;15.57;43.92;100924.78;5076935;28;1490;-46
2023/11/13 07:46:35;;;;;;;;;;;;;;;15.48;43.95;100915.38;5079747;28;1030;-48
2023/11/13 07:49:01;;;;;;;;;;;;;;;15.54;43.58;100914.34;5075096;28;1022;-50
2023/11/13 07:51:26;;;;;;;;;;;;;;;15.44;43.75;100913.44;5083295;28;1030;-48
2023/11/13 07:53:52;;;;;;;;;;;;;;;15.35;43.61;100905.69;5095314;28;1988;-47
2023/11/13 07:56:19;;;;;;;;;;;;;;;15.33;43.78;100910.63;5082705;28;883;-49
2023/11/13 07:58:45;;;;;;;;;;;;;;;15.25;43.72;100900.13;5098686;28;1097;-44
2023/11/13 08:01:11;;;;;;;;;;;;;;;15.26;43.65;100896.28;5099050;28;2490;-46
2023/11/13 08:03:37;;;;;;;;;;;;;;;15.26;43.62;100893.56;5085753;28;1126;-48
2023/11/13 08:06:03;;;;;;;;;;;;;;;15.17;43.52;100887.72;5090890;28;1224;-50
2023/11/13 08:08:29;;;;;;;;;;;;;;;15.13;43.66;100891.28;5096887;28;1019;-52
2023/11/13 08:10:56;;;;;;;;;;;;;;;15.16;43.44;100885.25;5078449;28;1111;-49
2023/11/13 08:13:23;;;;;;;;;;;;;;;15.06;43.64;100886.81;5092061;28;1117;-46
2023/11/13 08:15:50;;;;;;;;;;;;;;;15.08;43.49;100896.69;5098969;28;1934;-48
2023/11/13 08:18:16;;;;;;;;;;;;;;;15.02;43.43;100896.63;5096928;28;1144;-46
2023/11/13 08:20:44;;;;;;;;;;;;;;;15.19;44.04;100890.22;5078966;28;995;-48
2023/11/13 08:23:10;;;;;;;;;;;;;;;15.52;45.59;100889.09;5091454;28;1085;-49
2023/11/13 08:25:39;;;;;;;;;;;;;;;15.32;45.00;100881.56;5079276;28;1129;-48
2023/11/13 08:28:05;;;;;;;;;;;;;;;15.14;45.06;100877.31;5094220;28;1031;-49
2023/11/13 08:30:30;;;;;;;;;;;;;;;15.10;44.54;100878.91;5092288;28;1689;-47
2023/11/13 08:32:56;;;;;;;;;;;;;;;15.04;44.31;100875.31;5096229;28;1034;-49
2023/11/13 08:35:21;;;;;;;;;;;;;;;14.86;43.98;100883.91;5087422;28;1977;-49
2023/11/13 08:37:47;;;;;;;;;;;;;;;15.97;45.21;100889.66;5082192;28;943;-50
2023/11/13 08:40:13;;;;;;;;;;;;;;;15.46;46.23;100886.56;5077926;28;1019;-48
2023/11/13 08:42:42;;;;;;;;;;;;;;;15.28;45.82;100883.19;5081055;28;991;-44
2023/11/13 08:45:12;;;;;;;;;;;;;;;15.12;45.59;100884.13;5090234;28;1030;-49
2023/11/13 08:47:48;;;;;;;;;;;;;;;15.46;45.74;100889.31;5094769;28;1103;-47
2023/11/13 08:50:14;;;;;;;;;;;;;;;15.46;46.12;100886.56;5087209;28;1010;-47
2023/11/13 08:52:44;;;;;;;;;;;;;;;15.22;45.78;100882.31;5086296;28;1079;-48
2023/11/13 08:55:13;;;;;;;;;;;;;;;15.19;45.02;100879.25;5093063;28;1897;-50
2023/11/13 08:57:41;;;;;;;;;;;;;;;15.06;44.90;100886.81;5097594;28;1121;-50
2023/11/13 09:00:08;;;;;;;;;;;;;;;15.49;45.28;100888.81;5097638;28;1086;-49
2023/11/13 09:02:35;;;;;;;;;;;;;;;15.55;46.02;100876.78;5093277;28;2698;-48
2023/11/13 09:05:04;;;;;;;;;;;;;;;15.33;45.95;100865.94;5097497;28;1124;-51
2023/11/13 09:07:30;;;;;;;;;;;;;;;15.20;45.47;100859.81;5070383;28;1071;-48
2023/11/13 09:09:56;;;;;;;;;;;;;;;15.17;45.05;100865.81;5086209;28;1027;-47
2023/11/13 09:12:22;;;;;;;;;;;;;;;15.05;45.00;100860.53;5079505;28;1557;-45
2023/11/13 09:14:47;;;;;;;;;;;;;;;15.05;44.63;100854.22;5088827;28;1901;-49
2023/11/13 09:17:13;;;;;;;;;;;;;;;14.97;44.51;100850.06;5077936;28;1117;-48
2023/11/13 09:19:40;;;;;;;;;;;;;;;14.95;44.30;100848.66;5086885;28;910;-45
2023/11/13 09:22:09;;;;;;;;;;;;;;;14.89;44.05;100848.59;5064525;28;1042;-50
2023/11/13 09:24:41;;;;;;;;;;;;;;;15.57;44.99;100860.88;5077666;28;1169;-46
2023/11/13 09:27:10;;;;;;;;;;;;;;;15.44;46.03;100853.16;5097493;28;1288;-48
2023/11/13 09:29:38;;;;;;;;;;;;;;;15.26;45.49;100841.50;5079267;28;1153;-43
2023/11/13 09:32:07;;;;;;;;;;;;;;;15.14;45.13;100849.09;5082224;28;2535;-46
2023/11/13 09:34:33;;;;;;;;;;;;;;;15.01;44.90;100837.50;5090777;28;1962;-50
2023/11/13 09:36:58;;;;;;;;;;;;;;;14.92;44.65;100827.28;5078890;28;1034;-45
2023/11/13 09:39:30;;;;;;;;;;;;;;;14.90;44.05;100830.28;5090256;28;1146;-51
2023/11/13 09:41:56;;;;;;;;;;;;;;;14.92;44.18;100840.97;5086420;28;1145;-48
2023/11/13 09:44:22;;;;;;;;;;;;;;;15.72;45.79;100839.06;5083212;28;1288;-50
2023/11/13 09:46:47;;;;;;;;;;;;;;;15.22;46.03;100829.41;5068872;28;1253;-46
2023/11/13 09:49:13;;;;;;;;;;;;;;;15.14;45.72;100829.94;5078688;28;1023;-50
2023/11/13 09:51:38;;;;;;;;;;;;;;;15.06;45.12;100825.75;5065701;28;1287;-47
2023/11/13 09:54:04;;;;;;;;;;;;;;;14.88;44.80;100825.03;5088424;28;1957;-49
2023/11/13 09:56:30;;;;;;;;;;;;;;;14.89;44.60;100814.94;5091933;28;1265;-46
2023/11/13 09:58:56;;;;;;;;;;;;;;;14.85;44.24;100819.28;5078014;28;991;-49
2023/11/13 10:01:22;;;;;;;;;;;;;;;15.68;45.21;100816.03;5086650;28;2345;-47
2023/11/13 10:03:47;;;;;;;;;;;;;;;15.23;46.00;100807.25;5084644;28;1370;-47
2023/11/13 10:06:13;;;;;;;;;;;;;;;15.09;45.52;100797.03;5083870;28;1220;-48
2023/11/13 10:08:42;;;;;;;;;;;;;;;15.37;45.61;100793.91;5083208;28;1142;-47
2023/11/13 10:11:09;;;;;;;;;;;;;;;15.47;46.11;100790.41;5090527;28;995;-48
2023/11/13 10:13:34;;;;;;;;;;;;;;;15.32;45.70;100780.19;5088373;28;1272;-50
2023/11/13 10:16:22;;;;;;;;;;;;;;;15.12;45.52;100780.88;5086218;28;1909;-48
2023/11/13 10:18:49;;;;;;;;;;;;;;;15.09;44.96;100772.38;5095815;28;1070;-47
2023/11/13 10:21:40;;;;;;;;;;;;;;;15.10;45.39;100763.06;5095395;28;1020;-46
2023/11/13 10:24:16;;;;;;;;;;;;;;;15.39;46.13;100761.59;5089048;28;1929;-45
2023/11/13 10:26:42;;;;;;;;;;;;;;;15.16;45.92;100768.28;5092084;28;1113;-48
2023/11/13 10:29:17;;;;;;;;;;;;;;;15.13;45.36;100762.53;5075730;28;1069;-50
2023/11/13 10:31:44;;;;;;;;;;;;;;;15.07;44.87;100758.94;5083538;28;2447;-47
2023/11/13 10:34:11;;;;;;;;;;;;;;;15.05;44.76;100761.94;5088303;28;1894;-49
2023/11/13 10:36:36;;;;;;;;;;;;;;;16.06;45.89;100772.88;5095960;28;1081;-51
2023/11/13 10:39:11;;;;;;;;;;;;;;;15.44;46.39;100776.41;5084039;28;1053;-46
2023/11/13 10:41:36;;;;;;;;;;;;;;;15.17;46.02;100772.69;5089376;28;1098;-51
2023/11/13 10:44:18;;;;;;;;;;;;;;;15.24;45.21;100769.72;5067320;28;1556;-48
2023/11/13 10:46:44;;;;;;;;;;;;;;;15.01;45.01;100768.19;5082127;28;1070;-50
2023/11/13 10:49:12;;;;;;;;;;;;;;;15.03;44.60;100777.81;5084548;28;1049;-46
2023/11/13 10:51:37;;;;;;;;;;;;;;;15.06;44.54;100777.28;5071846;28;1138;-47
2023/11/13 10:54:06;;;;;;;;;;;;;;;15.71;45.83;100776.25;5086135;28;1962;-48
2023/11/13 10:56:32;;;;;;;;;;;;;;;15.32;46.02;100782.94;5089912;28;1128;-47
2023/11/13 10:58:57;;;;;;;;;;;;;;;15.16;45.58;100778.44;5077387;28;1399;-50
2023/11/13 11:01:23;;;;;;;;;;;;;;;15.12;44.99;100775.38;5072865;28;2456;-44
2023/11/13 11:03:49;;;;;;;;;;;;;;;15.05;44.69;100774.78;5076898;28;1374;-47
2023/11/13 11:06:24;;;;;;;;;;;;;;;15.03;44.43;100775.06;5077495;28;1364;-49
2023/11/13 11:08:51;;;;;;;;;;;;;;;15.77;45.45;100760.66;5093271;28;1365;-48
2023/11/13 11:11:18;;;;;;;;;;;;;;;15.49;46.20;100773.72;5088397;28;1374;-49
2023/11/13 11:13:45;;;;;;;;;;;;;;;15.17;45.99;100763.66;5071363;28;1437;-48
2023/11/13 11:16:17;;;;;;;;;;;;;;;15.01;45.63;100765.47;5067009;28;1351;-47
2023/11/13 11:19:06;;;;;;;;;;;;;;;15.02;45.01;100767.94;5072210;28;1402;-48
2023/11/13 11:21:45;;;;;;;;;;;;;;;14.98;44.38;100763.25;5055787;28;1216;-50
2023/11/13 11:24:31;;;;;;;;;;;;;;;15.22;45.03;100771.88;5085087;28;1373;-50
2023/11/13 11:26:59;;;;;;;;;;;;;;;15.65;46.36;100760.91;5074062;28;2070;-45
2023/11/13 11:29:31;;;;;;;;;;;;;;;15.31;46.21;100756.63;5082572;28;1142;-49
2023/11/13 11:31:59;;;;;;;;;;;;;;;15.18;45.47;100754.34;5083428;28;2492;-50
2023/11/13 11:34:25;;;;;;;;;;;;;;;15.06;45.25;100744.41;5083726;28;1967;-50
2023/11/13 11:36:52;;;;;;;;;;;;;;;15.03;44.89;100752.34;5073478;28;1429;-50
2023/11/13 11:39:25;;;;;;;;;;;;;;;15.63;45.81;100743.91;5096681;28;1371;-47
2023/11/13 11:41:54;;;;;;;;;;;;;;;15.36;46.34;100742.97;5094313;28;1236;-48
2023/11/13 11:44:23;;;;;;;;;;;;;;;15.31;45.93;100742.91;5067139;28;1019;-48
2023/11/13 11:46:49;;;;;;;;;;;;;;;15.86;46.48;100746.19;5084498;28;1493;-50
2023/11/13 11:49:25;;;;;;;;;;;;;;;15.49;46.54;100752.59;5093214;28;1197;-48
2023/11/13 11:51:52;;;;;;;;;;;;;;;15.30;45.79;100752.22;5079987;28;1062;-54
2023/11/13 11:54:17;;;;;;;;;;;;;;;15.20;45.48;100749.44;5088446;28;1878;-44
2023/11/13 11:56:56;;;;;;;;;;;;;;;15.08;45.30;100741.41;5082100;28;1145;-45
2023/11/13 11:59:23;;;;;;;;;;;;;;;15.11;44.92;100742.78;5075168;28;1266;-51
2023/11/13 12:01:49;;;;;;;;;;;;;;;14.96;44.60;100738.88;5062181;28;1066;-46
2023/11/13 12:04:14;;;;;;;;;;;;;;;15.00;44.04;100739.19;5092786;28;1023;-50
2023/11/13 12:06:40;;;;;;;;;;;;;;;14.89;44.36;100749.22;5079620;28;1093;-51
2023/11/13 12:09:08;;;;;;;;;;;;;;;14.83;44.23;100745.63;5063988;28;1066;-47
2023/11/13 12:11:34;;;;;;;;;;;;;;;15.74;46.00;100738.19;5092863;28;1166;-49
2023/11/13 12:13:59;;;;;;;;;;;;;;;15.30;46.02;100744.00;5087368;28;1966;-48
2023/11/13 12:16:26;;;;;;;;;;;;;;;15.18;45.51;100746.13;5098515;28;1197;-50
2023/11/13 12:18:52;;;;;;;;;;;;;;;15.05;45.40;100736.47;5087626;28;1019;-47
2023/11/13 12:21:17;;;;;;;;;;;;;;;15.81;45.86;100745.34;5095724;28;1192;-46
2023/11/13 12:23:46;;;;;;;;;;;;;;;15.45;46.79;100745.19;5092911;28;1054;-46
2023/11/13 12:26:12;;;;;;;;;;;;;;;15.26;46.15;100744.81;5079035;28;1054;-44
2023/11/13 12:28:38;;;;;;;;;;;;;;;15.09;45.79;100748.53;5079389;28;1121;-47
2023/11/13 12:31:16;;;;;;;;;;;;;;;15.00;45.72;100745.47;5092451;28;1058;-47
2023/11/13 12:33:44;;;;;;;;;;;;;;;15.03;44.89;100738.66;5093078;28;857;-49
2023/11/13 12:36:11;;;;;;;;;;;;;;;15.00;44.71;100734.53;5065937;28;1914;-48
2023/11/13 12:38:37;;;;;;;;;;;;;;;14.87;44.58;100740.44;5088414;28;1176;-46
2023/11/13 12:41:04;;;;;;;;;;;;;;;15.48;45.28;100741.91;5085073;28;1073;-51
2023/11/13 12:43:30;;;;;;;;;;;;;;;15.73;46.36;100725.56;5088841;28;1471;-46
2023/11/13 12:45:55;;;;;;;;;;;;;;;15.38;46.40;100729.00;5089759;28;1191;-49